createdAt,value
2019-01-08T00:07:01.553Z,1002.1
2019-01-08T00:17:01.530Z,1001.77
2019-01-08T00:32:01.523Z,1001.41
2019-01-08T00:37:01.386Z,1001.41
2019-01-08T00:47:01.517Z,1001.08
2019-01-08T00:52:01.443Z,1000.87
2019-01-08T01:07:01.573Z,1000.67
2019-01-08T01:22:01.506Z,1000.16
2019-01-08T01:32:01.605Z,1000.08
2019-01-08T01:37:01.488Z,1000.08
2019-01-08T01:42:01.493Z,999.54
2019-01-08T01:57:01.535Z,999.21
2019-01-08T02:02:01.401Z,998.84
2019-01-08T02:17:01.413Z,998.45
2019-01-08T02:27:01.460Z,998.23
2019-01-08T02:42:01.595Z,997.7
2019-01-08T02:57:01.453Z,997.21
2019-01-08T03:12:01.552Z,996.45
2019-01-08T03:27:01.484Z,996.2
2019-01-08T03:42:01.468Z,995.36
2019-01-08T03:57:01.509Z,995.23
2019-01-08T04:12:01.517Z,994.41
2019-01-08T04:22:01.524Z,994.17
2019-01-08T04:37:01.462Z,993.76
2019-01-08T04:52:01.443Z,993.44
2019-01-08T05:02:01.557Z,993.22
2019-01-08T05:17:01.523Z,993.03
2019-01-08T05:32:01.548Z,992.68
2019-01-08T05:37:01.422Z,992.68
2019-01-08T05:47:01.454Z,992.58
2019-01-08T06:02:02.522Z,992.35
2019-01-08T06:17:01.443Z,992.12
2019-01-08T06:32:01.522Z,991.96
2019-01-08T06:47:01.249Z,992.0
2019-01-08T07:02:01.394Z,992.27
2019-01-08T07:17:01.396Z,992.54
2019-01-08T07:32:01.422Z,992.81
2019-01-08T07:37:01.424Z,992.81
2019-01-08T07:52:01.357Z,993.32
2019-01-08T08:07:06.428Z,993.57
2019-01-08T08:22:01.225Z,993.79
2019-01-08T08:37:01.385Z,993.84
2019-01-08T08:52:01.393Z,994.43
2019-01-08T09:02:01.391Z,994.74
2019-01-08T09:17:01.416Z,994.84
2019-01-08T09:23:01.379Z,995.01
2019-01-08T09:33:01.732Z,995.13
2019-01-08T09:48:01.527Z,995.38
2019-01-08T09:53:01.360Z,995.41
2019-01-08T10:08:01.234Z,995.62
2019-01-08T10:18:01.251Z,995.66
2019-01-08T10:23:10.485Z,995.7
2019-01-08T10:38:01.523Z,995.81
2019-01-08T10:53:01.291Z,996.05
2019-01-08T11:08:06.267Z,996.18
2019-01-08T11:23:06.257Z,996.14
2019-01-08T11:33:01.640Z,996.33
2019-01-08T11:43:01.267Z,996.49
2019-01-08T11:53:01.385Z,996.62
2019-01-08T11:58:01.384Z,996.62
2019-01-08T12:03:01.600Z,996.78
2019-01-08T12:13:01.603Z,997.01
2019-01-08T12:18:01.569Z,997.01
2019-01-08T12:23:01.570Z,997.01
2019-01-08T12:28:01.720Z,997.01
2019-01-08T12:33:01.614Z,997.23
2019-01-08T12:48:01.573Z,997.22
2019-01-08T12:53:01.388Z,997.21
2019-01-08T12:58:01.588Z,997.21
2019-01-08T13:03:01.393Z,997.32
2019-01-08T13:18:01.402Z,997.54
2019-01-08T13:23:01.576Z,997.91
2019-01-08T13:33:01.550Z,997.9
2019-01-08T13:38:01.532Z,997.9
2019-01-08T13:53:01.558Z,998.16
2019-01-08T14:03:01.664Z,998.24
2019-01-08T14:13:01.990Z,998.44
2019-01-08T14:23:01.985Z,998.56
2019-01-08T14:33:01.537Z,998.67
2019-01-08T14:48:01.526Z,998.87
2019-01-08T15:03:01.517Z,999.04
2019-01-08T15:18:01.536Z,999.21
2019-01-08T15:28:01.541Z,999.37
2019-01-08T15:38:01.532Z,999.42
2019-01-08T15:48:01.474Z,999.52
2019-01-08T15:58:01.566Z,999.71
2019-01-08T16:13:01.528Z,999.97
2019-01-08T16:28:01.398Z,1000.18
2019-01-08T16:38:01.398Z,1000.36
2019-01-08T16:53:02.838Z,1000.54
2019-01-08T17:08:01.571Z,1000.69
2019-01-08T17:18:01.456Z,1000.76
2019-01-08T17:28:01.443Z,1000.86
2019-01-08T17:43:01.522Z,1001.04
2019-01-08T17:58:01.517Z,1001.19
2019-01-08T18:13:01.494Z,1001.41
2019-01-08T18:28:01.450Z,1001.51
2019-01-08T18:43:01.497Z,1001.68
2019-01-08T18:53:01.596Z,1001.84
2019-01-08T19:08:01.606Z,1002.11
2019-01-08T19:23:01.442Z,1002.37
2019-01-08T19:38:01.534Z,1002.63
2019-01-08T19:43:01.514Z,1002.64
2019-01-08T19:58:01.456Z,1002.8
2019-01-08T20:13:01.553Z,1002.85
2019-01-08T20:28:01.516Z,1002.96
2019-01-08T20:43:01.519Z,1003.16
2019-01-08T20:53:01.467Z,1003.21
2019-01-08T21:08:01.451Z,1003.27
2019-01-08T21:23:01.483Z,1003.55
2019-01-08T21:38:01.523Z,1003.69
2019-01-08T21:48:01.527Z,1003.71
2019-01-08T22:03:01.434Z,1004.08
2019-01-08T22:18:01.544Z,1004.26
2019-01-08T22:33:01.460Z,1004.18
2019-01-08T22:48:01.455Z,1004.22
2019-01-08T23:03:01.553Z,1004.4
2019-01-08T23:13:01.480Z,1004.43
2019-01-08T23:18:01.377Z,1004.43
2019-01-08T23:33:01.477Z,1004.78
2019-01-08T23:43:01.539Z,1004.87
2019-01-08T23:53:01.502Z,1004.95
